Time;durP1;ratioP1;P1;durP2;ratioP2;P2;SDS_P1;SDS_P2;PMS_P1;PMS_P2;Temp;Humidity;BMP_temperature;BMP_pressure;BME280_temperature;BME280_humidity;BME280_pressure;Samples;Min_cycle;Max_cycle;Signal;HPM_P1;HPM_P2
2023/04/30 00:00:27;;;;;;;4.30;2.70;;;;;;;15.51;36.55;99514.54;104659;1257;70415;-66
2023/04/30 00:02:54;;;;;;;2.90;2.50;;;;;;;15.47;36.55;99520.83;104549;1254;72669;-66
2023/04/30 00:05:21;;;;;;;4.40;2.90;;;;;;;15.46;36.57;99516.31;105201;1257;60556;-66
2023/04/30 00:07:48;;;;;;;3.50;2.80;;;;;;;15.44;36.37;99515.35;104704;1254;60769;-67
2023/04/30 00:10:16;;;;;;;3.80;2.60;;;;;;;15.41;36.59;99519.98;104428;1267;73928;-69
2023/04/30 00:12:43;;;;;;;3.50;2.70;;;;;;;15.42;36.54;99514.06;104656;1254;70166;-67
2023/04/30 00:15:11;;;;;;;4.30;2.60;;;;;;;15.44;36.44;99512.23;104408;1267;73593;-67
2023/04/30 00:17:38;;;;;;;4.60;2.70;;;;;;;15.44;36.40;99506.00;104442;1257;60542;-66
2023/04/30 00:20:06;;;;;;;3.50;2.70;;;;;;;15.41;36.48;99501.77;104632;1254;60854;-67
2023/04/30 00:22:33;;;;;;;4.80;2.80;;;;;;;15.40;36.76;99501.14;104335;1256;74473;-67
2023/04/30 00:25:00;;;;;;;4.00;2.80;;;;;;;15.40;36.47;99497.30;104462;1257;69807;-67
2023/04/30 00:27:27;;;;;;;3.40;2.90;;;;;;;15.38;36.56;99493.34;104445;1270;74617;-67
2023/04/30 00:29:55;;;;;;;3.90;2.70;;;;;;;15.37;36.63;99491.27;104467;1254;60534;-67
2023/04/30 00:32:22;;;;;;;3.60;2.50;;;;;;;15.35;36.57;99489.62;104293;1258;60542;-66
2023/04/30 00:34:49;;;;;;;4.80;2.60;;;;;;;15.31;36.60;99486.17;104326;1255;75018;-67
2023/04/30 00:37:16;;;;;;;2.60;2.20;;;;;;;15.28;36.75;99487.26;104422;1257;70192;-67
2023/04/30 00:39:44;;;;;;;3.00;2.40;;;;;;;15.24;36.84;99480.79;104329;1253;72969;-67
2023/04/30 00:42:11;;;;;;;3.50;2.70;;;;;;;15.19;36.73;99480.06;104343;1252;61887;-68
2023/04/30 00:44:38;;;;;;;3.70;2.60;;;;;;;15.13;36.82;99474.64;104343;1264;60674;-67
2023/04/30 00:47:05;;;;;;;5.60;3.20;;;;;;;15.11;36.93;99473.73;104511;1251;74753;-68
2023/04/30 00:49:32;;;;;;;5.50;2.40;;;;;;;15.08;37.10;99471.27;104295;1257;70168;-67
2023/04/30 00:52:00;;;;;;;3.50;2.60;;;;;;;15.05;36.99;99467.90;104539;1257;72499;-68
2023/04/30 00:54:27;;;;;;;3.10;2.70;;;;;;;15.05;37.06;99461.55;104473;1258;60378;-67
2023/04/30 00:56:54;;;;;;;4.40;2.80;;;;;;;15.04;37.10;99466.89;104396;1268;60723;-68
2023/04/30 00:59:22;;;;;;;4.10;2.60;;;;;;;15.03;37.20;99464.35;104353;1253;74915;-67
2023/04/30 01:01:49;;;;;;;3.90;2.90;;;;;;;14.98;37.43;99468.20;104425;1268;69145;-66
2023/04/30 01:04:16;;;;;;;3.50;2.80;;;;;;;14.97;37.35;99464.55;104588;1257;74089;-68
2023/04/30 01:06:43;;;;;;;3.50;2.80;;;;;;;14.96;37.58;99465.14;104444;1260;60657;-69
2023/04/30 01:09:10;;;;;;;2.50;2.30;;;;;;;14.94;37.43;99466.65;104289;1260;258312;-68
2023/04/30 01:12:58;;;;;;;5.70;2.70;;;;;;;13.91;40.13;99470.75;101624;1292;600770;-68
2023/04/30 01:15:39;;;;;;;4.40;2.80;;;;;;;14.92;37.75;99464.50;103688;1267;60025;-68
2023/04/30 01:18:33;;;;;;;2.90;2.40;;;;;;;14.91;37.81;99463.19;103738;1273;60037;-68
2023/04/30 01:21:03;;;;;;;3.70;2.50;;;;;;;14.88;37.81;99458.04;103521;1272;71907;-69
2023/04/30 01:23:58;;;;;;;4.60;2.90;;;;;;;14.78;37.81;99456.38;103697;1279;70341;-67
2023/04/30 01:26:57;;;;;;;3.50;2.50;;;;;;;14.72;38.08;99459.22;103745;1271;159363;-67
2023/04/30 01:29:24;;;;;;;4.10;2.40;;;;;;;14.67;38.45;99460.08;104154;1279;59420;-69
2023/04/30 01:31:51;;;;;;;4.60;2.60;;;;;;;14.61;38.13;99460.60;103964;1277;59785;-69
2023/04/30 01:34:18;;;;;;;3.50;2.60;;;;;;;14.60;37.90;99457.67;103969;1269;74071;-68
2023/04/30 01:37:14;;;;;;;3.10;2.70;;;;;;;14.58;37.84;99454.60;103953;1277;69347;-69
2023/04/30 01:39:55;;;;;;;3.00;2.40;;;;;;;14.57;38.24;99448.86;104091;1270;72791;-66
2023/04/30 01:42:35;;;;;;;3.30;2.60;;;;;;;14.51;38.30;99444.65;103956;1267;62629;-69
2023/04/30 01:45:42;;;;;;;3.00;2.40;;;;;;;14.53;38.31;99443.63;104413;1260;60792;-69
2023/04/30 01:48:32;;;;;;;3.60;2.70;;;;;;;14.51;38.57;99440.77;104094;1257;72929;-69
2023/04/30 01:51:35;;;;;;;3.40;2.10;;;;;;;14.42;38.53;99440.45;104335;1277;69645;-69
2023/04/30 01:54:08;;;;;;;2.80;2.50;;;;;;;14.35;38.66;99437.32;104415;1260;72723;-69
2023/04/30 01:56:38;;;;;;;5.30;3.00;;;;;;;14.33;38.48;99439.55;104537;1269;60164;-69
2023/04/30 01:59:06;;;;;;;3.80;2.80;;;;;;;14.32;38.39;99434.15;104338;1260;63304;-69
2023/04/30 02:01:33;;;;;;;4.10;2.90;;;;;;;14.25;38.53;99431.77;104137;1263;74518;-68
2023/04/30 02:04:00;;;;;;;3.50;2.70;;;;;;;14.19;38.51;99429.46;104451;1259;70404;-69
2023/04/30 02:06:28;;;;;;;3.50;2.50;;;;;;;14.18;38.49;99426.21;104229;1270;72965;-68
2023/04/30 02:09:01;;;;;;;4.50;3.00;;;;;;;14.18;38.73;99424.64;104493;1273;59755;-68
2023/04/30 02:11:29;;;;;;;3.50;3.00;;;;;;;14.15;39.12;99427.45;104488;1260;60542;-68
2023/04/30 02:13:56;;;;;;;3.40;2.80;;;;;;;14.17;38.96;99428.03;104306;1270;75242;-68
2023/04/30 02:16:24;;;;;;;3.60;3.10;;;;;;;14.16;38.91;99424.02;104352;1259;72022;-68
2023/04/30 02:18:51;;;;;;;4.20;3.30;;;;;;;14.13;38.91;99428.59;104288;1260;72594;-68
2023/04/30 02:21:18;;;;;;;4.80;3.70;;;;;;;14.11;38.98;99422.77;104248;1257;60630;-68
2023/04/30 02:23:46;;;;;;;;;;;;;;;14.12;39.18;99422.52;104402;1259;63337;-68
2023/04/30 02:26:13;;;;;;;6.50;3.00;;;;;;;14.11;39.38;99422.36;104255;1264;74270;-68
2023/04/30 02:28:41;;;;;;;5.60;3.00;;;;;;;14.07;39.06;99419.66;104107;1261;72133;-68
2023/04/30 02:31:09;;;;;;;8.60;3.80;;;;;;;14.06;39.20;99417.98;104531;1257;72905;-70
2023/04/30 02:33:36;;;;;;;5.10;3.30;;;;;;;14.02;39.35;99413.40;104466;1261;60456;-68
2023/04/30 02:36:04;;;;;;;5.50;3.40;;;;;;;14.01;39.32;99417.69;104255;1261;60911;-68
2023/04/30 02:38:31;;;;;;;4.60;3.30;;;;;;;14.00;39.37;99420.05;104455;1260;75153;-68
2023/04/30 02:40:58;;;;;;;4.40;3.30;;;;;;;13.95;39.37;99418.23;104322;1257;69936;-68
2023/04/30 02:43:25;;;;;;;5.40;3.70;;;;;;;13.95;39.47;99421.39;104201;1267;72476;-68
2023/04/30 02:45:52;;;;;;;5.50;3.40;;;;;;;13.95;39.43;99423.16;104354;1257;62223;-69
2023/04/30 02:48:19;;;;;;;7.00;3.60;;;;;;;13.92;39.55;99422.83;104406;1267;60958;-68
2023/04/30 02:50:46;;;;;;;4.70;3.50;;;;;;;13.90;39.55;99421.04;104277;1257;73285;-69
2023/04/30 02:53:13;;;;;;;4.30;3.30;;;;;;;13.86;39.66;99419.83;104425;1260;69673;-68
2023/04/30 02:55:40;;;;;;;4.50;3.50;;;;;;;13.86;39.64;99417.39;104207;1260;72174;-66
2023/04/30 02:58:08;;;;;;;3.80;3.20;;;;;;;13.85;39.84;99410.77;104426;1257;59750;-65
2023/04/30 03:00:35;;;;;;;4.40;3.40;;;;;;;13.84;39.70;99412.74;104223;1260;61114;-68
2023/04/30 03:03:03;;;;;;;4.80;3.50;;;;;;;13.85;40.18;99409.02;104374;1258;73129;-66
2023/04/30 03:05:30;;;;;;;3.40;3.00;;;;;;;13.82;40.03;99408.81;104113;1263;68965;-69
2023/04/30 03:07:57;;;;;;;3.30;2.80;;;;;;;13.83;40.06;99407.85;104463;1253;73160;-66
2023/04/30 03:10:24;;;;;;;7.10;3.60;;;;;;;13.84;39.91;99406.27;104448;1257;59734;-66
2023/04/30 03:12:53;;;;;;;3.50;2.90;;;;;;;13.81;40.19;99406.23;104292;1256;60831;-66
2023/04/30 03:15:20;;;;;;;5.60;3.00;;;;;;;13.79;40.20;99403.52;104370;1266;73265;-66
2023/04/30 03:17:47;;;;;;;4.60;2.70;;;;;;;13.80;40.10;99406.11;104542;1251;70282;-66
2023/04/30 03:20:14;;;;;;;5.30;3.50;;;;;;;13.82;40.24;99404.54;104469;1264;72820;-66
2023/04/30 03:22:42;;;;;;;4.40;2.80;;;;;;;13.84;39.99;99402.69;104291;1264;59933;-66
2023/04/30 03:25:09;;;;;;;4.40;3.10;;;;;;;13.81;40.13;99405.16;104402;1270;61546;-67
2023/04/30 03:27:36;;;;;;;3.50;3.10;;;;;;;13.81;40.39;99406.06;104349;1264;73709;-66
2023/04/30 03:30:06;;;;;;;5.40;2.90;;;;;;;13.83;40.29;99405.77;104420;1267;68692;-66
2023/04/30 03:32:33;;;;;;;3.20;2.90;;;;;;;13.83;40.48;99402.59;104371;1259;74307;-66
2023/04/30 03:35:00;;;;;;;3.80;3.30;;;;;;;13.85;39.82;99401.58;104468;1257;59724;-66
2023/04/30 03:37:28;;;;;;;2.90;2.60;;;;;;;13.88;40.34;99399.48;104354;1257;60202;-66
2023/04/30 03:39:55;;;;;;;3.30;2.80;;;;;;;13.90;40.01;99400.40;104428;1258;73777;-66
2023/04/30 03:42:22;;;;;;;4.50;3.20;;;;;;;13.88;40.40;99398.95;104362;1251;70146;-66
2023/04/30 03:44:49;;;;;;;3.70;2.80;;;;;;;13.86;40.38;99400.81;104447;1256;73642;-66
2023/04/30 03:47:17;;;;;;;3.40;2.80;;;;;;;13.84;40.04;99399.69;104399;1251;60013;-66
2023/04/30 03:49:44;;;;;;;5.90;3.10;;;;;;;13.81;41.14;99400.08;104341;1251;61149;-66
2023/04/30 03:52:11;;;;;;;4.50;2.90;;;;;;;13.83;42.02;99403.80;104423;1253;74617;-68
2023/04/30 03:54:38;;;;;;;3.00;2.40;;;;;;;13.91;42.22;99404.20;104424;1267;70777;-66
2023/04/30 03:57:06;;;;;;;3.10;2.30;;;;;;;13.95;41.68;99403.65;104380;1254;72715;-67
2023/04/30 03:59:34;;;;;;;7.90;2.70;;;;;;;13.94;41.80;99408.23;104409;1266;60133;-68
2023/04/30 04:02:01;;;;;;;4.70;2.50;;;;;;;14.00;41.70;99406.67;104547;1254;59990;-67
2023/04/30 04:04:28;;;;;;;3.50;2.90;;;;;;;14.07;41.52;99405.02;104449;1266;72530;-72
2023/04/30 04:06:56;;;;;;;4.00;2.90;;;;;;;14.18;41.46;99403.27;104550;1259;70340;-72
2023/04/30 04:09:23;;;;;;;5.50;3.00;;;;;;;14.25;41.15;99401.77;104461;1266;75041;-70
2023/04/30 04:11:50;;;;;;;4.40;2.80;;;;;;;14.29;40.98;99406.48;104476;1254;59731;-71
2023/04/30 04:14:18;;;;;;;4.30;3.10;;;;;;;14.29;41.31;99406.82;104527;1252;61543;-71
2023/04/30 04:16:45;;;;;;;6.40;2.50;;;;;;;14.37;41.28;99407.25;104416;1257;75316;-70
2023/04/30 04:19:12;;;;;;;3.50;2.60;;;;;;;14.47;41.10;99405.55;104499;1257;70135;-70
2023/04/30 04:21:40;;;;;;;4.30;2.80;;;;;;;14.53;40.92;99402.51;104540;1251;75359;-70
2023/04/30 04:24:12;;;;;;;2.90;2.50;;;;;;;14.55;41.09;99400.09;104460;1250;60445;-70
2023/04/30 04:26:40;;;;;;;3.60;2.30;;;;;;;14.64;41.00;99401.14;104948;1254;61458;-70
2023/04/30 04:29:08;;;;;;;2.40;2.00;;;;;;;14.74;41.54;99402.30;104833;1257;74619;-69
2023/04/30 04:31:37;;;;;;;2.50;2.30;;;;;;;14.77;42.15;99399.59;104615;1254;69702;-76
2023/04/30 04:34:04;;;;;;;3.50;2.40;;;;;;;14.87;42.05;99397.39;104677;1251;74310;-75
2023/04/30 04:36:32;;;;;;;3.20;2.50;;;;;;;14.94;42.21;99398.36;104679;1255;60100;-75
2023/04/30 04:39:00;;;;;;;2.60;2.40;;;;;;;15.00;41.77;99399.55;104559;1273;59775;-72
2023/04/30 04:41:29;;;;;;;3.50;2.30;;;;;;;15.01;41.84;99403.20;104549;1251;75424;-73
2023/04/30 04:43:57;;;;;;;3.20;2.90;;;;;;;15.06;42.13;99402.34;104539;1255;69987;-74
2023/04/30 04:46:24;;;;;;;;;;;;;;;15.11;41.23;99403.10;104641;1256;72795;-70
2023/04/30 04:48:52;;;;;;;3.60;2.60;;;;;;;15.15;41.47;99404.27;104476;1254;59870;-74
2023/04/30 04:51:19;;;;;;;3.00;2.70;;;;;;;15.12;41.39;99390.48;104569;1251;61100;-73
2023/04/30 04:53:47;;;;;;;3.50;2.50;;;;;;;15.25;41.35;99404.97;104424;1263;75489;-74
2023/04/30 04:56:14;;;;;;;3.80;2.50;;;;;;;15.25;41.67;99405.40;104590;1251;72638;-75
2023/04/30 04:58:41;;;;;;;3.50;2.50;;;;;;;15.38;41.92;99407.48;104466;1257;75214;-72
2023/04/30 05:01:09;;;;;;;3.50;2.70;;;;;;;15.50;42.60;99407.23;104388;1258;61669;-75
2023/04/30 05:03:36;;;;;;;2.10;1.90;;;;;;;15.60;42.47;99403.00;104540;1270;60437;-72
2023/04/30 05:06:04;;;;;;;2.70;2.40;;;;;;;15.68;41.89;99401.07;104570;1253;74636;-72
2023/04/30 05:08:31;;;;;;;2.40;2.20;;;;;;;15.74;42.67;99395.22;104533;1271;68967;-71
2023/04/30 05:10:59;;;;;;;3.40;1.70;;;;;;;15.80;42.29;99392.89;104533;1257;73571;-72
2023/04/30 05:13:26;;;;;;;3.30;2.10;;;;;;;15.88;42.01;99389.48;104451;1257;60428;-69
2023/04/30 05:15:53;;;;;;;1.80;1.70;;;;;;;15.95;42.22;99385.82;104443;1269;61800;-73
2023/04/30 05:18:20;;;;;;;2.10;1.70;;;;;;;16.02;42.05;99386.75;104640;1256;72122;-75
2023/04/30 05:20:48;;;;;;;1.80;1.60;;;;;;;16.13;42.14;99387.98;104485;1258;70200;-76
2023/04/30 05:23:15;;;;;;;2.00;1.50;;;;;;;16.30;41.62;99387.84;104396;1258;73500;-73
2023/04/30 05:25:42;;;;;;;2.00;1.80;;;;;;;16.41;41.56;99389.70;104615;1260;60534;-78
2023/04/30 05:28:09;;;;;;;2.70;1.60;;;;;;;16.50;41.05;99388.50;104643;1254;60591;-73
2023/04/30 05:30:36;;;;;;;3.20;1.90;;;;;;;16.54;40.73;99385.03;104560;1270;74156;-71
2023/04/30 05:33:03;;;;;;;2.90;1.50;;;;;;;16.64;40.48;99384.55;104412;1251;69641;-72
2023/04/30 05:35:34;;;;;;;1.60;1.50;;;;;;;16.75;40.62;99378.23;104382;1257;73312;-72
2023/04/30 05:38:02;;;;;;;2.50;1.70;;;;;;;16.84;40.40;99379.88;104719;1253;60449;-70
2023/04/30 05:40:29;;;;;;;1.50;1.40;;;;;;;16.97;40.10;99375.62;104685;1257;60559;-68
2023/04/30 05:42:56;;;;;;;1.90;1.80;;;;;;;17.06;39.97;99375.70;104476;1251;74260;-70
2023/04/30 05:45:24;;;;;;;1.90;1.50;;;;;;;17.13;39.91;99374.98;104431;1264;71314;-68
2023/04/30 05:47:51;;;;;;;1.80;1.20;;;;;;;17.21;39.65;99370.14;104638;1253;74412;-68
2023/04/30 05:50:18;;;;;;;1.50;1.40;;;;;;;17.25;39.38;99363.27;105082;1252;62220;-69
2023/04/30 05:52:45;;;;;;;2.00;1.30;;;;;;;17.33;39.25;99362.69;104482;1254;61818;-68
2023/04/30 05:55:13;;;;;;;2.00;1.30;;;;;;;17.42;39.16;99367.14;104753;1261;74654;-68
2023/04/30 05:57:40;;;;;;;1.00;0.90;;;;;;;17.53;39.01;99366.66;104550;1251;70112;-68
2023/04/30 06:00:08;;;;;;;1.30;1.20;;;;;;;17.58;38.83;99365.77;104343;1253;72292;-68
2023/04/30 06:02:41;;;;;;;1.80;1.30;;;;;;;17.62;38.25;99367.95;104620;1254;60641;-70
2023/04/30 06:05:08;;;;;;;3.80;1.50;;;;;;;17.66;37.97;99367.98;104499;1254;62797;-70
2023/04/30 06:07:35;;;;;;;1.40;1.30;;;;;;;17.69;38.16;99365.95;104548;1251;74323;-68
2023/04/30 06:10:03;;;;;;;2.30;0.90;;;;;;;17.80;37.90;99363.01;104645;1251;70053;-70
2023/04/30 06:12:30;;;;;;;4.00;1.10;;;;;;;17.88;37.79;99358.83;104484;1259;73436;-71
2023/04/30 06:14:57;;;;;;;1.40;1.30;;;;;;;17.94;37.69;99355.27;104531;1261;62290;-71
2023/04/30 06:17:25;;;;;;;1.20;1.00;;;;;;;18.00;37.46;99349.61;104518;1254;61157;-70
2023/04/30 06:19:52;;;;;;;2.00;1.10;;;;;;;18.08;36.98;99353.23;104510;1258;74521;-71
2023/04/30 06:22:19;;;;;;;1.80;1.50;;;;;;;18.08;37.08;99350.41;104549;1257;69699;-68
2023/04/30 06:24:46;;;;;;;1.10;1.00;;;;;;;18.08;36.93;99345.74;104513;1257;72855;-69
2023/04/30 06:27:13;;;;;;;3.60;1.10;;;;;;;18.17;36.80;99344.02;104635;1254;60644;-68
2023/04/30 06:29:41;;;;;;;0.80;0.80;;;;;;;18.25;36.62;99340.02;104417;1261;62740;-66
2023/04/30 06:32:08;;;;;;;1.90;1.00;;;;;;;18.35;36.29;99338.86;104695;1267;74285;-70
2023/04/30 06:34:35;;;;;;;1.70;1.00;;;;;;;18.40;36.01;99341.13;104721;1256;71185;-70
2023/04/30 06:37:03;;;;;;;1.10;1.00;;;;;;;18.44;35.85;99342.41;104583;1253;73707;-72
2023/04/30 06:39:30;;;;;;;1.40;1.10;;;;;;;18.51;35.49;99336.52;104509;1260;63151;-70
2023/04/30 06:41:57;;;;;;;1.20;0.90;;;;;;;18.62;35.62;99338.30;104318;1257;61634;-69
2023/04/30 06:44:24;;;;;;;2.20;1.20;;;;;;;18.67;35.59;99335.02;104342;1255;75609;-71
2023/04/30 06:46:51;;;;;;;2.70;1.00;;;;;;;18.75;35.36;99336.20;104686;1263;69649;-71
2023/04/30 06:49:18;;;;;;;1.60;0.90;;;;;;;18.82;35.21;99329.04;104534;1257;74197;-71
2023/04/30 06:51:45;;;;;;;3.10;1.40;;;;;;;18.80;34.69;99324.74;104533;1270;60463;-71
2023/04/30 06:54:13;;;;;;;4.20;1.20;;;;;;;18.85;34.45;99319.45;104414;1251;61669;-71
2023/04/30 06:56:40;;;;;;;1.10;0.90;;;;;;;18.89;34.10;99317.86;104468;1252;74085;-71
2023/04/30 06:59:07;;;;;;;1.00;0.90;;;;;;;18.96;34.47;99313.68;104631;1257;70461;-70
2023/04/30 07:01:34;;;;;;;1.70;1.00;;;;;;;19.00;33.53;99313.75;104358;1253;72513;-70
2023/04/30 07:04:01;;;;;;;1.50;1.10;;;;;;;18.95;33.28;99310.77;104307;1257;60555;-72
2023/04/30 07:06:29;;;;;;;2.30;1.00;;;;;;;18.95;32.90;99308.61;104739;1257;61005;-72
2023/04/30 07:08:56;;;;;;;0.90;0.80;;;;;;;18.99;33.03;99301.60;104946;1253;74437;-71
2023/04/30 07:11:23;;;;;;;1.50;1.00;;;;;;;18.99;33.34;99297.27;104405;1270;70178;-70
2023/04/30 07:13:51;;;;;;;3.60;1.00;;;;;;;19.04;32.94;99289.10;104405;1264;72622;-72
2023/04/30 07:16:18;;;;;;;2.20;1.20;;;;;;;19.08;32.45;99289.61;104509;1258;60746;-73
2023/04/30 07:18:47;;;;;;;1.20;0.90;;;;;;;19.11;32.54;99288.70;104451;1252;61655;-71
2023/04/30 07:21:15;;;;;;;2.00;1.00;;;;;;;19.16;32.69;99286.80;104336;1266;76450;-69
2023/04/30 07:23:44;;;;;;;2.00;0.90;;;;;;;19.24;32.18;99283.81;104369;1256;70198;-70
2023/04/30 07:26:11;;;;;;;1.10;0.90;;;;;;;19.21;31.76;99282.86;104547;1257;73004;-69
2023/04/30 07:28:38;;;;;;;1.40;0.90;;;;;;;19.16;31.79;99275.61;104409;1256;62350;-70
2023/04/30 07:31:06;;;;;;;0.70;0.70;;;;;;;19.20;32.03;99279.03;104623;1252;62694;-62
2023/04/30 07:33:34;;;;;;;2.70;0.90;;;;;;;19.25;31.46;99279.15;104616;1257;74199;-67
2023/04/30 07:36:01;;;;;;;1.50;1.00;;;;;;;19.30;31.70;99280.34;104838;1253;71251;-64
2023/04/30 07:38:28;;;;;;;0.90;0.80;;;;;;;19.36;31.95;99277.54;104477;1251;73010;-63
2023/04/30 07:40:56;;;;;;;1.30;0.70;;;;;;;19.32;31.45;99276.91;104485;1257;60601;-67
2023/04/30 07:43:23;;;;;;;1.50;0.90;;;;;;;19.31;31.17;99280.26;104401;1256;60402;-63
2023/04/30 07:45:52;;;;;;;0.90;0.90;;;;;;;19.28;30.94;99274.98;104314;1258;74076;-62
2023/04/30 07:48:20;;;;;;;1.20;0.90;;;;;;;19.36;30.69;99275.69;104418;1257;72255;-63
2023/04/30 07:50:47;;;;;;;;;;;;;;;19.46;31.30;99271.27;104527;1253;72997;-62
2023/04/30 07:53:17;;;;;;;1.10;0.70;;;;;;;19.56;31.17;99268.35;104767;1257;62247;-62
2023/04/30 07:55:44;;;;;;;0.80;0.80;;;;;;;19.59;30.92;99266.98;104752;1253;60504;-63
2023/04/30 07:58:11;;;;;;;1.40;0.80;;;;;;;19.64;30.87;99266.58;104697;1251;73961;-62
2023/04/30 08:00:38;;;;;;;1.40;1.00;;;;;;;19.63;30.59;99262.94;104610;1251;70178;-63
2023/04/30 08:03:05;;;;;;;1.40;1.30;;;;;;;19.65;30.62;99265.98;104379;1257;73350;-62
2023/04/30 08:05:33;;;;;;;2.90;0.80;;;;;;;19.48;30.54;99261.59;104488;1256;60761;-61
2023/04/30 08:08:00;;;;;;;2.30;0.80;;;;;;;19.49;30.59;99265.69;104822;1251;61272;-62
2023/04/30 08:10:27;;;;;;;1.30;0.90;;;;;;;19.53;30.70;99268.80;108464;1251;75233;-62
2023/04/30 08:12:54;;;;;;;1.00;0.90;;;;;;;19.56;30.72;99271.49;108418;1251;70836;-66
2023/04/30 08:15:21;;;;;;;1.20;0.80;;;;;;;19.60;30.88;99265.86;108474;1251;72811;-63
2023/04/30 08:17:49;;;;;;;1.10;1.00;;;;;;;19.58;30.09;99266.59;107784;1251;60557;-63
2023/04/30 08:20:17;;;;;;;0.70;0.70;;;;;;;19.66;30.66;99265.84;105813;1254;60457;-62
2023/04/30 08:22:45;;;;;;;0.80;0.80;;;;;;;19.68;30.05;99266.79;108081;1253;76573;-62
2023/04/30 08:25:12;;;;;;;1.40;0.90;;;;;;;19.69;30.31;99265.29;104895;1253;72125;-61
2023/04/30 08:27:39;;;;;;;1.80;0.90;;;;;;;19.63;30.13;99260.13;104335;1273;72987;-62
2023/04/30 08:30:07;;;;;;;2.80;0.80;;;;;;;19.65;29.77;99259.88;104363;1257;61416;-62
2023/04/30 08:32:35;;;;;;;;;;;;;;;19.63;30.02;99255.13;104563;1269;62764;-62
2023/04/30 08:35:03;;;;;;;2.80;1.00;;;;;;;19.60;29.54;99259.30;104396;1254;73405;-63
2023/04/30 08:37:31;;;;;;;1.10;0.90;;;;;;;19.54;29.73;99258.00;104470;1254;69866;-62
2023/04/30 08:39:58;;;;;;;1.40;1.10;;;;;;;19.33;29.28;99253.25;104300;1273;75234;-62
2023/04/30 08:42:30;;;;;;;1.90;0.90;;;;;;;19.38;29.90;99253.14;104356;1268;60012;-64
2023/04/30 08:44:58;;;;;;;0.80;0.80;;;;;;;19.36;29.79;99255.59;104368;1258;60642;-63
2023/04/30 08:47:26;;;;;;;1.00;0.90;;;;;;;19.36;29.45;99256.52;104401;1254;74260;-62
2023/04/30 08:49:54;;;;;;;1.70;0.90;;;;;;;19.39;29.77;99252.92;104389;1275;69926;-63
2023/04/30 08:52:21;;;;;;;1.40;0.80;;;;;;;19.37;29.58;99246.83;104437;1254;72769;-62
2023/04/30 08:54:49;;;;;;;0.80;0.80;;;;;;;19.40;29.53;99247.24;104743;1253;60036;-62
2023/04/30 08:57:17;;;;;;;1.50;0.70;;;;;;;19.50;29.47;99245.58;104337;1258;60402;-64
2023/04/30 08:59:47;;;;;;;1.30;0.80;;;;;;;19.48;29.63;99242.69;104351;1269;74293;-64
2023/04/30 09:02:14;;;;;;;2.40;0.90;;;;;;;19.42;28.96;99236.80;104275;1260;69223;-64
2023/04/30 09:04:42;;;;;;;0.90;0.90;;;;;;;19.40;29.31;99240.52;104341;1270;72612;-62
2023/04/30 09:07:10;;;;;;;2.00;1.00;;;;;;;19.38;29.15;99238.77;104330;1257;60498;-62
2023/04/30 09:09:39;;;;;;;3.10;0.80;;;;;;;19.36;29.51;99237.00;104409;1266;62493;-65
2023/04/30 09:12:16;;;;;;;0.70;0.70;;;;;;;19.49;29.04;99233.89;104476;1267;73919;-63
2023/04/30 09:15:02;;;;;;;0.90;0.60;;;;;;;19.61;28.86;99232.55;104438;1257;70998;-63
2023/04/30 09:17:30;;;;;;;1.90;1.00;;;;;;;19.83;29.11;99236.88;104357;1253;73859;-63
2023/04/30 09:20:10;;;;;;;;;;;;;;;19.97;29.02;99223.14;104500;1258;61302;-64
2023/04/30 09:22:39;;;;;;;3.00;1.10;;;;;;;20.07;28.60;99215.73;104278;1260;60964;-66
2023/04/30 09:25:07;;;;;;;1.10;0.90;;;;;;;20.21;28.58;99218.02;104433;1259;74727;-65
2023/04/30 09:27:34;;;;;;;1.50;1.20;;;;;;;20.41;28.14;99222.83;104420;1267;71180;-63
2023/04/30 09:30:02;;;;;;;2.20;1.00;;;;;;;20.58;28.21;99219.84;104264;1254;72979;-67
2023/04/30 09:32:29;;;;;;;;;;;;;;;20.62;27.46;99214.52;104565;1253;62586;-62
2023/04/30 09:34:56;;;;;;;1.60;0.80;;;;;;;20.81;27.82;99216.17;104373;1253;61961;-63
2023/04/30 09:37:36;;;;;;;0.90;0.70;;;;;;;20.98;28.14;99214.27;104322;1253;74515;-63
2023/04/30 09:40:05;;;;;;;0.70;0.70;;;;;;;21.22;27.04;99211.30;104419;1254;70183;-63
2023/04/30 09:42:32;;;;;;;1.50;0.80;;;;;;;21.25;27.31;99209.04;104289;1273;72056;-63
2023/04/30 09:44:59;;;;;;;1.10;1.00;;;;;;;21.28;27.39;99211.48;104334;1257;60619;-62
2023/04/30 09:47:28;;;;;;;4.50;0.80;;;;;;;21.33;27.64;99203.19;104469;1253;60437;-63
2023/04/30 09:49:55;;;;;;;1.60;0.90;;;;;;;21.37;27.43;99197.58;104498;1257;74280;-63
2023/04/30 09:52:23;;;;;;;1.20;1.10;;;;;;;21.51;27.45;99204.99;104193;1262;69965;-65
2023/04/30 09:54:50;;;;;;;0.80;0.80;;;;;;;21.50;27.12;99198.86;104363;1263;72965;-63
2023/04/30 09:57:18;;;;;;;0.90;0.70;;;;;;;21.58;27.34;99196.75;104325;1254;61028;-64
2023/04/30 09:59:45;;;;;;;2.00;0.60;;;;;;;21.66;26.16;99200.20;104328;1263;61484;-64
2023/04/30 10:02:14;;;;;;;1.30;0.70;;;;;;;21.62;26.24;99193.79;104371;1258;76412;-62
2023/04/30 10:04:42;;;;;;;1.70;0.80;;;;;;;21.58;26.97;99192.10;104475;1260;70513;-62
2023/04/30 10:07:14;;;;;;;2.80;0.70;;;;;;;21.68;27.00;99190.95;104300;1257;72174;-63
2023/04/30 10:09:56;;;;;;;2.40;0.80;;;;;;;21.73;25.88;99183.84;104548;1257;62880;-63
2023/04/30 10:12:26;;;;;;;4.20;0.80;;;;;;;21.84;25.76;99189.92;104338;1259;60953;-63
2023/04/30 10:14:56;;;;;;;1.30;0.80;;;;;;;21.91;26.12;99183.85;104396;1253;76103;-64
2023/04/30 10:17:26;;;;;;;1.30;0.90;;;;;;;21.99;26.08;99182.60;104461;1263;69605;-62
2023/04/30 10:19:55;;;;;;;2.90;1.10;;;;;;;21.93;26.44;99184.47;104446;1266;74670;-66
2023/04/30 10:22:22;;;;;;;1.40;0.70;;;;;;;21.86;26.05;99174.90;104382;1275;61151;-62
2023/04/30 10:24:50;;;;;;;4.30;0.90;;;;;;;21.80;25.94;99179.77;104377;1267;60598;-61
2023/04/30 10:27:17;;;;;;;1.90;0.90;;;;;;;21.92;26.25;99178.30;104283;1259;73644;-62
2023/04/30 10:29:44;;;;;;;2.40;0.80;;;;;;;22.02;25.53;99175.91;104419;1260;70738;-62
2023/04/30 10:32:11;;;;;;;2.60;1.00;;;;;;;21.95;25.53;99174.98;104328;1254;72583;-62
2023/04/30 10:34:39;;;;;;;;;;;;;;;21.88;25.84;99176.88;104388;1255;60809;-62
2023/04/30 10:37:08;;;;;;;0.90;0.80;;;;;;;21.96;26.14;99181.65;104333;1254;60124;-62
2023/04/30 10:39:35;;;;;;;1.50;1.10;;;;;;;22.06;26.20;99180.45;104354;1259;74285;-61
2023/04/30 10:42:06;;;;;;;2.00;1.10;;;;;;;22.04;25.64;99177.48;104161;1258;71939;-62
2023/04/30 10:44:34;;;;;;;2.10;1.10;;;;;;;22.12;25.97;99173.58;104370;1259;73231;-64
2023/04/30 10:47:01;;;;;;;1.40;0.90;;;;;;;22.17;26.11;99169.61;104472;1254;62911;-63
2023/04/30 10:49:28;;;;;;;1.90;1.10;;;;;;;22.23;26.00;99161.86;104521;1258;60987;-63
2023/04/30 10:52:03;;;;;;;1.10;1.00;;;;;;;22.22;25.62;99159.81;104418;1270;74849;-63
2023/04/30 10:54:34;;;;;;;1.30;0.80;;;;;;;22.13;25.76;99156.77;104460;1253;69799;-64
2023/04/30 10:57:13;;;;;;;2.80;0.90;;;;;;;22.26;26.11;99156.92;104348;1258;74884;-65
2023/04/30 10:59:49;;;;;;;2.30;0.90;;;;;;;22.31;25.99;99157.45;104437;1257;63452;-64
2023/04/30 11:02:16;;;;;;;1.60;0.90;;;;;;;22.25;25.98;99145.96;104331;1257;60625;-62
2023/04/30 11:05:10;;;;;;;1.00;0.90;;;;;;;22.33;25.62;99152.30;104403;1254;73455;-64
2023/04/30 11:07:51;;;;;;;1.30;0.90;;;;;;;22.42;25.75;99150.36;104285;1260;70091;-63
2023/04/30 11:10:23;;;;;;;1.00;0.70;;;;;;;22.51;25.89;99152.46;104310;1254;73317;-63
2023/04/30 11:12:51;;;;;;;2.70;0.80;;;;;;;22.52;25.13;99147.24;104404;1267;60741;-63
2023/04/30 11:15:26;;;;;;;1.00;0.80;;;;;;;22.44;25.47;99141.22;104398;1251;60543;-62
2023/04/30 11:17:59;;;;;;;2.40;1.00;;;;;;;22.68;26.00;99151.52;104506;1254;73211;-62
2023/04/30 11:20:27;;;;;;;3.90;1.00;;;;;;;22.91;25.86;99155.04;104545;1253;69749;-64
2023/04/30 11:23:27;;;;;;;2.10;1.10;;;;;;;23.11;25.85;99148.90;104245;1270;75405;-65
2023/04/30 11:26:07;;;;;;;1.50;0.90;;;;;;;23.20;25.15;99152.13;104086;1265;62250;-65
2023/04/30 11:28:36;;;;;;;0.40;0.40;;;;;;;23.16;24.92;99153.64;104512;1269;62667;-63
2023/04/30 11:31:03;;;;;;;3.40;0.70;;;;;;;23.12;25.18;99148.65;104564;1254;74667;-64
2023/04/30 11:33:31;;;;;;;0.70;0.70;;;;;;;22.95;24.84;99151.79;104399;1257;69987;-62
2023/04/30 11:35:59;;;;;;;;;;;;;;;22.73;25.28;99153.45;104338;1258;72985;-62